createdAt,value
2023-01-25T00:02:02.691Z,100095.72
2023-01-25T00:04:29.708Z,100093.48
2023-01-25T00:06:56.719Z,100092.63
2023-01-25T00:09:24.659Z,100090.05
2023-01-25T00:11:51.470Z,100091.23
2023-01-25T00:14:17.902Z,100086.27
2023-01-25T00:16:45.329Z,100085.08
2023-01-25T00:19:12.146Z,100083.02
2023-01-25T00:21:39.296Z,100081.48
2023-01-25T00:24:07.219Z,100076.81
2023-01-25T00:26:35.286Z,100078.17
2023-01-25T00:29:02.911Z,100076.28
2023-01-25T00:31:38.669Z,100075.05
2023-01-25T00:34:24.223Z,100070.64
2023-01-25T00:37:01.424Z,100071.00
2023-01-25T00:39:28.868Z,100067.77
2023-01-25T00:41:56.043Z,100066.92
2023-01-25T00:44:22.711Z,100063.16
2023-01-25T00:46:49.484Z,100062.82
2023-01-25T00:49:21.107Z,100060.41
2023-01-25T00:51:48.605Z,100063.62
2023-01-25T00:54:15.436Z,100065.33
2023-01-25T00:56:42.072Z,100065.51
2023-01-25T00:59:10.365Z,100066.38
2023-01-25T01:01:36.936Z,100066.38
2023-01-25T01:04:05.717Z,100064.47
2023-01-25T01:06:35.934Z,100064.47
2023-01-25T01:09:03.595Z,100062.25
2023-01-25T01:11:30.030Z,100060.89
2023-01-25T01:13:58.092Z,100056.96
2023-01-25T01:16:25.702Z,100060.04
2023-01-25T01:18:53.036Z,100053.93
2023-01-25T01:21:20.536Z,100047.59
2023-01-25T01:23:47.375Z,100046.90
2023-01-25T01:26:16.062Z,100054.57
2023-01-25T01:28:43.101Z,100045.00
2023-01-25T01:31:13.884Z,100040.23
2023-01-25T01:33:41.093Z,100037.29
2023-01-25T01:36:16.639Z,100030.29
2023-01-25T01:38:44.107Z,100023.13
2023-01-25T01:41:12.099Z,100018.70
2023-01-25T01:43:39.587Z,100018.54
2023-01-25T01:46:12.224Z,100012.94
2023-01-25T01:48:48.209Z,100004.06
2023-01-25T01:51:49.671Z,99996.89
2023-01-25T01:54:36.525Z,99985.64
2023-01-25T01:57:22.150Z,99993.34
2023-01-25T02:00:17.796Z,99995.54
2023-01-25T02:02:46.034Z,99991.61
2023-01-25T02:05:20.333Z,99984.09
2023-01-25T02:07:50.743Z,99985.77
2023-01-25T02:10:18.397Z,99986.09
2023-01-25T02:12:45.709Z,99984.73
2023-01-25T02:15:12.554Z,99980.30
2023-01-25T02:17:40.857Z,99974.89
2023-01-25T02:20:34.899Z,99974.90
2023-01-25T02:23:35.420Z,99975.77
2023-01-25T02:26:05.552Z,99977.10
2023-01-25T02:28:38.656Z,99975.57
2023-01-25T02:31:06.125Z,99977.62
2023-01-25T02:33:32.828Z,99974.20
2023-01-25T02:36:08.462Z,99972.83
2023-01-25T02:38:56.684Z,99974.89
2023-01-25T02:41:39.522Z,99968.27
2023-01-25T02:44:10.118Z,99966.75
2023-01-25T02:46:39.071Z,99959.76
2023-01-25T02:49:07.623Z,99956.56
2023-01-25T02:51:36.845Z,99960.01
2023-01-25T02:54:05.702Z,99962.24
2023-01-25T02:56:32.763Z,99965.16
2023-01-25T02:58:59.712Z,99966.02
2023-01-25T03:01:26.582Z,99967.55
2023-01-25T03:03:53.614Z,99962.77
2023-01-25T03:06:20.066Z,99953.05
2023-01-25T03:08:46.695Z,99955.09
2023-01-25T03:11:13.237Z,99953.07
2023-01-25T03:13:39.781Z,99953.27
2023-01-25T03:16:10.161Z,99944.04
2023-01-25T03:18:37.910Z,99948.48
2023-01-25T03:21:07.108Z,99942.52
2023-01-25T03:23:33.728Z,99937.21
2023-01-25T03:26:15.804Z,99936.54
2023-01-25T03:28:43.259Z,99937.91
2023-01-25T03:31:12.955Z,99943.84
2023-01-25T03:33:39.561Z,99944.13
2023-01-25T03:36:07.342Z,99938.31
2023-01-25T03:38:34.874Z,99935.09
2023-01-25T03:41:01.962Z,99925.73
2023-01-25T03:43:29.199Z,99926.95
2023-01-25T03:45:58.792Z,99932.23
2023-01-25T03:48:27.074Z,99932.73
2023-01-25T03:50:58.864Z,99931.53
2023-01-25T03:53:27.565Z,99936.59
2023-01-25T03:55:59.519Z,99933.98
2023-01-25T03:58:26.787Z,99932.46
2023-01-25T04:00:55.981Z,99933.14
2023-01-25T04:03:23.603Z,99934.69
2023-01-25T04:05:50.276Z,99934.16
2023-01-25T04:08:16.839Z,99929.05
2023-01-25T04:10:43.995Z,99922.41
2023-01-25T04:13:10.704Z,99917.48
2023-01-25T04:15:37.592Z,99917.16
2023-01-25T04:18:04.320Z,99911.56
2023-01-25T04:20:31.000Z,99910.91
2023-01-25T04:22:57.525Z,99911.08
2023-01-25T04:25:23.987Z,99906.83
2023-01-25T04:27:50.915Z,99909.40
2023-01-25T04:30:17.568Z,99909.11
2023-01-25T04:32:44.240Z,99909.11
2023-01-25T04:35:11.469Z,99908.14
2023-01-25T04:37:38.081Z,99904.90
2023-01-25T04:40:05.590Z,99903.19
2023-01-25T04:42:32.221Z,99899.09
2023-01-25T04:44:58.759Z,99899.78
2023-01-25T04:47:25.377Z,99898.23
2023-01-25T04:49:51.857Z,99896.19
2023-01-25T04:52:18.482Z,99895.50
2023-01-25T04:54:44.967Z,99893.29
2023-01-25T04:57:11.564Z,99889.20
2023-01-25T04:59:38.036Z,99887.66
2023-01-25T05:02:04.832Z,99887.83
2023-01-25T05:04:31.825Z,99890.92
2023-01-25T05:06:58.444Z,99887.84
2023-01-25T05:09:24.938Z,99887.33
2023-01-25T05:11:51.494Z,99884.23
2023-01-25T05:14:18.086Z,99887.13
2023-01-25T05:16:44.676Z,99888.29
2023-01-25T05:19:11.297Z,99885.56
2023-01-25T05:21:37.821Z,99889.63
2023-01-25T05:24:04.977Z,99888.27
2023-01-25T05:26:31.702Z,99883.65
2023-01-25T05:28:58.346Z,99881.94
2023-01-25T05:31:24.809Z,99878.36
2023-01-25T05:33:51.642Z,99875.13
2023-01-25T05:36:18.348Z,99877.83
2023-01-25T05:38:44.819Z,99877.66
2023-01-25T05:41:11.357Z,99875.96
2023-01-25T05:43:38.006Z,99878.86
2023-01-25T05:46:04.678Z,99872.58
2023-01-25T05:48:31.288Z,99869.02
2023-01-25T05:50:58.447Z,99871.95
2023-01-25T05:53:28.677Z,99873.30
2023-01-25T05:55:55.232Z,99872.41
2023-01-25T05:58:21.859Z,99872.93
2023-01-25T06:00:48.413Z,99874.09
2023-01-25T06:03:15.001Z,99871.02
2023-01-25T06:05:41.707Z,99872.55
2023-01-25T06:08:08.322Z,99868.82
2023-01-25T06:10:36.182Z,99869.88
2023-01-25T06:13:02.817Z,99872.46
2023-01-25T06:15:29.378Z,99871.78
2023-01-25T06:17:56.290Z,99869.05
2023-01-25T06:20:23.088Z,99867.39
2023-01-25T06:22:52.660Z,99871.15
2023-01-25T06:25:19.240Z,99871.66
2023-01-25T06:27:45.753Z,99875.23
2023-01-25T06:30:12.613Z,99876.63
2023-01-25T06:32:39.575Z,99872.05
2023-01-25T06:35:06.426Z,99876.86
2023-01-25T06:37:33.620Z,99868.85
2023-01-25T06:40:00.142Z,99866.97
2023-01-25T06:42:26.793Z,99864.38
2023-01-25T06:44:53.714Z,99860.95
2023-01-25T06:47:20.365Z,99862.52
2023-01-25T06:49:46.998Z,99859.11
2023-01-25T06:52:13.706Z,99860.48
2023-01-25T06:54:40.287Z,99860.00
2023-01-25T06:57:06.845Z,99857.11
2023-01-25T06:59:33.304Z,99853.70
2023-01-25T07:02:00.016Z,99846.90
2023-01-25T07:04:26.656Z,99845.72
2023-01-25T07:06:53.295Z,99848.65
2023-01-25T07:09:19.775Z,99847.84
2023-01-25T07:11:46.343Z,99847.52
2023-01-25T07:14:13.023Z,99841.77
2023-01-25T07:16:39.479Z,99843.16
2023-01-25T07:19:07.603Z,99842.04
2023-01-25T07:21:34.695Z,99840.52
2023-01-25T07:24:03.023Z,99841.42
2023-01-25T07:26:30.864Z,99844.71
2023-01-25T07:28:58.804Z,99848.49
2023-01-25T07:31:25.807Z,99842.38
2023-01-25T07:33:54.668Z,99833.02
2023-01-25T07:36:21.710Z,99832.02
2023-01-25T07:38:48.725Z,99833.86
2023-01-25T07:41:15.634Z,99828.58
2023-01-25T07:43:42.679Z,99829.98
2023-01-25T07:46:11.927Z,99829.88
2023-01-25T07:48:45.800Z,99831.95
2023-01-25T07:51:12.537Z,99831.97
2023-01-25T07:53:40.501Z,99834.05
2023-01-25T07:56:08.272Z,99828.62
2023-01-25T07:58:34.926Z,99827.10
2023-01-25T08:01:09.434Z,99826.08
2023-01-25T08:03:35.925Z,99825.92
2023-01-25T08:06:03.004Z,99819.11
2023-01-25T08:08:29.429Z,99809.89
2023-01-25T08:10:56.103Z,99811.92
2023-01-25T08:13:22.520Z,99806.80
2023-01-25T08:15:56.360Z,99801.70
2023-01-25T08:18:22.896Z,99803.23
2023-01-25T08:20:49.338Z,99806.83
2023-01-25T08:23:15.832Z,99805.13
2023-01-25T08:25:42.524Z,99803.92
2023-01-25T08:28:09.067Z,99798.67
2023-01-25T08:30:35.994Z,99798.02
2023-01-25T08:33:02.544Z,99793.90
2023-01-25T08:35:29.082Z,99797.81
2023-01-25T08:37:55.624Z,99799.50
2023-01-25T08:40:22.307Z,99797.80
2023-01-25T08:42:48.905Z,99797.14
2023-01-25T08:45:15.445Z,99796.65
2023-01-25T08:47:42.083Z,99793.58
2023-01-25T08:50:09.453Z,99791.19
2023-01-25T08:52:36.293Z,99796.17
2023-01-25T08:55:02.861Z,99788.69
2023-01-25T08:57:29.376Z,99786.16
2023-01-25T08:59:55.915Z,99787.38
2023-01-25T09:02:22.461Z,99787.08
2023-01-25T09:04:48.998Z,99785.55
2023-01-25T09:07:15.435Z,99784.21
2023-01-25T09:09:41.986Z,99785.60
2023-01-25T09:12:10.059Z,99794.69
2023-01-25T09:14:36.522Z,99792.30
2023-01-25T09:17:03.026Z,99782.89
2023-01-25T09:19:29.682Z,99771.60
2023-01-25T09:21:56.227Z,99772.63
2023-01-25T09:24:22.804Z,99773.31
2023-01-25T09:26:58.971Z,99776.90
2023-01-25T09:29:26.385Z,99776.89
2023-01-25T09:31:52.898Z,99769.52
2023-01-25T09:34:19.510Z,99769.54
2023-01-25T09:36:45.973Z,99764.05
2023-01-25T09:39:12.712Z,99759.42
2023-01-25T09:42:14.163Z,99759.09
2023-01-25T09:45:17.075Z,99747.61
2023-01-25T09:48:05.489Z,99742.63
2023-01-25T09:50:49.141Z,99741.75
2023-01-25T09:53:24.357Z,99732.65
2023-01-25T09:56:09.335Z,99730.77
2023-01-25T09:58:40.220Z,99724.95
2023-01-25T10:01:36.598Z,99722.73
2023-01-25T10:04:13.043Z,99720.85
2023-01-25T10:06:46.121Z,99716.59
2023-01-25T10:09:24.608Z,99709.05
2023-01-25T10:11:51.237Z,99704.26
2023-01-25T10:14:19.497Z,99705.45
2023-01-25T10:16:48.915Z,99698.07
2023-01-25T10:19:41.401Z,99695.34
2023-01-25T10:22:22.081Z,99683.16
2023-01-25T10:24:57.555Z,99678.02
2023-01-25T10:27:33.126Z,99676.27
2023-01-25T10:30:07.944Z,99670.78
2023-01-25T10:32:39.600Z,99674.38
2023-01-25T10:35:38.460Z,99668.17
2023-01-25T10:38:40.545Z,99660.08
2023-01-25T10:41:13.828Z,99656.42
2023-01-25T10:43:40.546Z,99656.40
2023-01-25T10:46:19.899Z,99651.93
2023-01-25T10:48:46.738Z,99648.48
2023-01-25T10:51:29.969Z,99647.09
2023-01-25T10:54:03.284Z,99640.66
2023-01-25T10:56:31.131Z,99637.67
2023-01-25T10:59:22.110Z,99637.75
2023-01-25T11:01:48.726Z,99630.83
2023-01-25T11:04:36.046Z,99627.88
2023-01-25T11:07:04.676Z,99623.98
2023-01-25T11:09:36.962Z,99623.77
2023-01-25T11:12:06.825Z,99612.04
2023-01-25T11:14:33.985Z,99610.36
2023-01-25T11:17:03.400Z,99604.39
2023-01-25T11:19:32.855Z,99604.42
2023-01-25T11:22:01.180Z,99599.92
2023-01-25T11:24:33.826Z,99595.98
2023-01-25T11:27:23.331Z,99589.69
2023-01-25T11:30:04.945Z,99593.39
2023-01-25T11:32:31.568Z,99592.91
2023-01-25T11:34:58.612Z,99585.70
2023-01-25T11:37:46.453Z,99583.79
2023-01-25T11:40:45.077Z,99578.63
2023-01-25T11:43:17.331Z,99573.30
2023-01-25T11:45:58.092Z,99566.55
2023-01-25T11:48:33.547Z,99555.23
2023-01-25T11:51:06.712Z,99561.98
2023-01-25T11:53:51.892Z,99563.41
2023-01-25T11:56:37.664Z,99560.19
2023-01-25T11:59:32.352Z,99553.66
2023-01-25T12:02:15.743Z,99547.34
2023-01-25T12:04:42.160Z,99541.68
2023-01-25T12:07:25.211Z,99539.10
2023-01-25T12:10:20.032Z,99529.02
2023-01-25T12:12:56.602Z,99526.14
2023-01-25T12:15:45.992Z,99523.04
2023-01-25T12:19:14.026Z,99524.08
2023-01-25T12:22:11.306Z,99518.39
2023-01-25T12:24:45.027Z,99512.19
2023-01-25T12:27:25.820Z,99510.27
2023-01-25T12:29:58.275Z,99507.69
2023-01-25T12:32:41.300Z,99510.23
2023-01-25T12:35:21.800Z,99510.92
2023-01-25T12:37:53.222Z,99506.45
2023-01-25T12:40:22.816Z,99505.80
2023-01-25T12:42:59.248Z,99499.50
2023-01-25T12:45:29.023Z,99495.06
2023-01-25T12:48:10.344Z,99494.08
2023-01-25T12:50:52.309Z,99492.42
2023-01-25T12:53:25.113Z,99496.23
2023-01-25T12:55:53.215Z,99495.08
2023-01-25T12:58:38.210Z,99490.64
2023-01-25T13:01:26.386Z,99485.01
2023-01-25T13:04:10.444Z,99480.73
2023-01-25T13:06:45.572Z,99479.73
2023-01-25T13:09:14.999Z,99473.22
2023-01-25T13:11:44.382Z,99471.34
2023-01-25T13:14:16.802Z,99466.88
2023-01-25T13:16:50.203Z,99462.61
2023-01-25T13:19:30.540Z,99460.23
2023-01-25T13:21:58.812Z,99456.67
2023-01-25T13:24:33.880Z,99456.19
2023-01-25T13:27:23.336Z,99452.59
2023-01-25T13:30:01.399Z,99453.48
2023-01-25T13:32:47.861Z,99447.67
2023-01-25T13:35:33.428Z,99442.91
2023-01-25T13:38:25.639Z,99446.16
2023-01-25T13:41:16.099Z,99451.30
2023-01-25T13:43:46.126Z,99453.88
2023-01-25T13:46:18.063Z,99447.71
2023-01-25T13:48:50.781Z,99443.10
2023-01-25T13:51:19.611Z,99440.20
2023-01-25T13:53:56.330Z,99442.42
2023-01-25T13:56:32.323Z,99434.90
2023-01-25T13:58:59.155Z,99432.16
2023-01-25T14:01:26.108Z,99426.02
2023-01-25T14:03:59.343Z,99426.52
2023-01-25T14:06:29.562Z,99427.71
2023-01-25T14:08:59.903Z,99427.20
2023-01-25T14:11:30.392Z,99422.77
2023-01-25T14:13:59.326Z,99419.52
2023-01-25T14:16:26.524Z,99412.15
2023-01-25T14:18:53.496Z,99411.30
2023-01-25T14:21:21.761Z,99412.66
2023-01-25T14:23:49.451Z,99414.73
2023-01-25T14:26:19.259Z,99415.07
2023-01-25T14:28:59.230Z,99411.13
2023-01-25T14:31:36.277Z,99406.86
2023-01-25T14:34:04.078Z,99403.95
2023-01-25T14:36:33.010Z,99398.14
2023-01-25T14:38:59.812Z,99394.20
2023-01-25T14:41:31.859Z,99392.84
2023-01-25T14:44:02.916Z,99396.26
2023-01-25T14:46:32.232Z,99400.20
2023-01-25T14:49:24.077Z,99391.98
2023-01-25T14:52:13.279Z,99388.23
2023-01-25T14:54:54.845Z,99384.64
2023-01-25T14:57:30.996Z,99380.20
2023-01-25T14:59:59.278Z,99379.52
2023-01-25T15:02:51.872Z,99376.09
2023-01-25T15:05:21.550Z,99372.85
2023-01-25T15:07:50.045Z,99376.27
2023-01-25T15:10:23.763Z,99378.33
2023-01-25T15:13:14.604Z,99373.70
2023-01-25T15:15:59.546Z,99372.85
2023-01-25T15:18:54.857Z,99371.65
2023-01-25T15:21:27.619Z,99370.80
2023-01-25T15:23:56.564Z,99366.17
2023-01-25T15:26:25.390Z,99369.25
2023-01-25T15:28:54.614Z,99371.14
2023-01-25T15:31:25.592Z,99371.31
2023-01-25T15:33:52.452Z,99369.77
2023-01-25T15:36:19.043Z,99365.66
2023-01-25T15:38:46.013Z,99360.03
2023-01-25T15:41:13.923Z,99358.32
2023-01-25T15:43:41.124Z,99353.70
2023-01-25T15:46:27.924Z,99351.98
2023-01-25T15:48:55.519Z,99348.74
2023-01-25T15:51:23.252Z,99350.81
2023-01-25T15:53:50.502Z,99349.61
2023-01-25T15:56:20.591Z,99347.90
2023-01-25T15:58:54.291Z,99344.81
2023-01-25T16:01:25.562Z,99338.33
2023-01-25T16:03:52.256Z,99334.75
2023-01-25T16:06:25.149Z,99334.22
2023-01-25T16:08:51.820Z,99326.54
2023-01-25T16:11:18.442Z,99327.73
2023-01-25T16:13:46.076Z,99326.88
2023-01-25T16:16:18.940Z,99319.20
2023-01-25T16:18:45.527Z,99320.21
2023-01-25T16:21:14.107Z,99316.79
2023-01-25T16:23:41.415Z,99316.80
2023-01-25T16:26:28.152Z,99320.40
2023-01-25T16:28:54.602Z,99314.93
2023-01-25T16:31:31.737Z,99310.98
2023-01-25T16:33:59.177Z,99305.17
2023-01-25T16:36:25.646Z,99302.95
2023-01-25T16:38:52.251Z,99295.78
2023-01-25T16:41:18.699Z,99292.02
2023-01-25T16:43:48.036Z,99291.52
2023-01-25T16:46:23.436Z,99286.73
2023-01-25T16:48:51.960Z,99287.08
2023-01-25T16:51:24.672Z,99286.39
2023-01-25T16:53:53.283Z,99289.64
2023-01-25T16:56:24.902Z,99282.98
2023-01-25T16:58:52.925Z,99278.86
2023-01-25T17:01:21.510Z,99273.25
2023-01-25T17:03:48.258Z,99269.48
2023-01-25T17:06:19.227Z,99266.58
2023-01-25T17:08:47.477Z,99265.91
2023-01-25T17:11:14.544Z,99263.17
2023-01-25T17:13:41.141Z,99257.70
2023-01-25T17:16:08.250Z,99255.66
2023-01-25T17:18:36.036Z,99254.11
2023-01-25T17:21:06.814Z,99251.73
2023-01-25T17:23:35.262Z,99254.45
2023-01-25T17:26:06.518Z,99257.52
2023-01-25T17:28:33.176Z,99260.59
2023-01-25T17:30:59.804Z,99261.80
2023-01-25T17:33:26.436Z,99260.42
2023-01-25T17:35:54.771Z,99257.35
2023-01-25T17:38:21.157Z,99260.25
2023-01-25T17:40:47.667Z,99256.00
2023-01-25T17:43:14.195Z,99252.22
2023-01-25T17:45:40.734Z,99248.13
2023-01-25T17:48:08.243Z,99247.79
2023-01-25T17:50:36.094Z,99247.11
2023-01-25T17:53:04.211Z,99243.35
2023-01-25T17:55:30.843Z,99241.98
2023-01-25T17:57:58.869Z,99234.13
2023-01-25T18:00:25.489Z,99234.98
2023-01-25T18:02:52.082Z,99233.45
2023-01-25T18:05:18.829Z,99226.96
2023-01-25T18:07:45.483Z,99224.40
2023-01-25T18:10:12.904Z,99223.73
2023-01-25T18:12:41.080Z,99218.27
2023-01-25T18:15:08.707Z,99214.67
2023-01-25T18:17:35.432Z,99215.52
2023-01-25T18:20:03.534Z,99214.49
2023-01-25T18:22:30.100Z,99215.52
2023-01-25T18:24:56.702Z,99217.22
2023-01-25T18:27:25.638Z,99213.29
2023-01-25T18:30:04.773Z,99209.02
2023-01-25T18:32:32.128Z,99208.67
2023-01-25T18:34:59.277Z,99205.44
2023-01-25T18:37:25.743Z,99205.09
2023-01-25T18:39:54.519Z,99196.73
2023-01-25T18:42:24.014Z,99195.17
2023-01-25T18:44:50.567Z,99194.34
2023-01-25T18:47:19.055Z,99196.88
2023-01-25T18:49:49.968Z,99190.39
2023-01-25T18:52:17.975Z,99184.59
2023-01-25T18:54:44.853Z,99182.54
2023-01-25T18:57:12.898Z,99182.55
2023-01-25T18:59:40.268Z,99182.19
2023-01-25T19:02:07.858Z,99185.77
2023-01-25T19:04:34.327Z,99179.11
2023-01-25T19:07:00.889Z,99177.92
2023-01-25T19:09:28.271Z,99172.80
2023-01-25T19:11:55.277Z,99170.58
2023-01-25T19:14:23.094Z,99168.02
2023-01-25T19:16:50.523Z,99165.29
2023-01-25T19:19:17.781Z,99162.75
2023-01-25T19:21:44.327Z,99163.42
2023-01-25T19:24:13.477Z,99161.20
2023-01-25T19:26:40.766Z,99159.67
2023-01-25T19:29:07.749Z,99157.61
2023-01-25T19:31:35.430Z,99152.84
2023-01-25T19:34:05.444Z,99147.90
2023-01-25T19:36:34.760Z,99144.83
2023-01-25T19:39:01.922Z,99142.77
2023-01-25T19:41:30.714Z,99139.88
2023-01-25T19:43:59.883Z,99138.19
2023-01-25T19:46:29.089Z,99137.16
2023-01-25T19:48:56.355Z,99136.31
2023-01-25T19:51:26.983Z,99130.34
2023-01-25T19:54:07.249Z,99131.53
2023-01-25T19:56:36.265Z,99124.20
2023-01-25T19:59:04.636Z,99121.13
2023-01-25T20:01:31.333Z,99125.90
2023-01-25T20:03:59.270Z,99124.70
2023-01-25T20:06:26.723Z,99124.02
2023-01-25T20:08:53.451Z,99125.23
2023-01-25T20:11:26.421Z,99125.39
2023-01-25T20:13:56.340Z,99118.06
2023-01-25T20:16:23.680Z,99109.88
2023-01-25T20:18:50.462Z,99105.61
2023-01-25T20:21:22.609Z,99106.63
2023-01-25T20:23:52.302Z,99101.34
2023-01-25T20:26:38.482Z,99100.67
2023-01-25T20:29:06.783Z,99099.98
2023-01-25T20:31:38.956Z,99098.45
2023-01-25T20:34:10.454Z,99091.29
2023-01-25T20:36:36.892Z,99088.73
2023-01-25T20:39:04.441Z,99086.86
2023-01-25T20:41:31.148Z,99084.65
2023-01-25T20:43:59.910Z,99080.73
2023-01-25T20:46:26.948Z,99080.36
2023-01-25T20:48:54.240Z,99079.18
2023-01-25T20:51:21.445Z,99080.54
2023-01-25T20:53:50.132Z,99087.71
2023-01-25T20:56:18.653Z,99083.96
2023-01-25T20:58:45.888Z,99083.79
2023-01-25T21:01:20.619Z,99082.41
2023-01-25T21:03:47.857Z,99076.80
2023-01-25T21:06:15.041Z,99077.48
2023-01-25T21:08:41.876Z,99077.30
2023-01-25T21:11:09.751Z,99082.09
2023-01-25T21:13:36.398Z,99075.60
2023-01-25T21:16:08.939Z,99075.77
2023-01-25T21:18:45.642Z,99074.75
2023-01-25T21:21:21.103Z,99069.45
2023-01-25T21:23:49.219Z,99068.42
2023-01-25T21:26:22.376Z,99064.68
2023-01-25T21:28:50.530Z,99057.86
2023-01-25T21:31:20.036Z,99055.13
2023-01-25T21:33:47.628Z,99055.48
2023-01-25T21:36:15.686Z,99052.41
2023-01-25T21:38:46.970Z,99053.77
2023-01-25T21:41:22.519Z,99053.77
2023-01-25T21:43:49.662Z,99053.08
2023-01-25T21:46:16.229Z,99052.75
2023-01-25T21:48:42.786Z,99049.16
2023-01-25T21:51:13.281Z,99044.20
2023-01-25T21:53:39.750Z,99040.46
2023-01-25T21:56:06.808Z,99040.96
2023-01-25T21:58:33.214Z,99036.36
2023-01-25T22:01:02.591Z,99031.24
2023-01-25T22:03:29.031Z,99030.05
2023-01-25T22:05:55.457Z,99026.63
2023-01-25T22:08:21.901Z,99021.33
2023-01-25T22:10:48.310Z,99020.15
2023-01-25T22:13:14.810Z,99014.52
2023-01-25T22:15:41.264Z,99012.30
2023-01-25T22:18:07.895Z,99010.27
2023-01-25T22:20:34.298Z,99009.24
2023-01-25T22:23:00.726Z,99011.29
2023-01-25T22:25:27.182Z,99004.63
2023-01-25T22:27:59.663Z,99003.27
2023-01-25T22:30:26.256Z,99002.08
2023-01-25T22:32:52.706Z,98994.57
2023-01-25T22:35:19.200Z,98989.77
2023-01-25T22:37:45.657Z,98991.50
2023-01-25T22:40:12.906Z,98989.10
2023-01-25T22:42:39.669Z,98987.74
2023-01-25T22:45:06.968Z,98981.95
2023-01-25T22:47:33.391Z,98982.62
2023-01-25T22:49:59.790Z,98975.79
2023-01-25T22:52:26.331Z,98970.34
2023-01-25T22:54:52.859Z,98971.88
2023-01-25T22:57:19.394Z,98965.74
2023-01-25T22:59:45.801Z,98962.16
2023-01-25T23:02:12.236Z,98959.59
2023-01-25T23:04:38.888Z,98957.38
2023-01-25T23:07:05.445Z,98961.98
2023-01-25T23:09:31.897Z,98953.63
2023-01-25T23:11:58.544Z,98949.71
2023-01-25T23:14:25.201Z,98948.35
2023-01-25T23:16:52.281Z,98944.59
2023-01-25T23:19:18.828Z,98943.23
2023-01-25T23:21:45.291Z,98937.27
2023-01-25T23:24:12.044Z,98938.63
2023-01-25T23:26:38.799Z,98938.80
2023-01-25T23:29:08.844Z,98939.81
2023-01-25T23:31:35.965Z,98935.20
2023-01-25T23:34:04.864Z,98924.81
2023-01-25T23:36:34.737Z,98915.27
2023-01-25T23:39:01.516Z,98912.86
2023-01-25T23:41:29.857Z,98911.34
2023-01-25T23:43:56.490Z,98907.59
2023-01-25T23:46:24.034Z,98902.48
2023-01-25T23:48:51.310Z,98904.35
2023-01-25T23:51:18.203Z,98909.81
2023-01-25T23:53:45.233Z,98910.33
2023-01-25T23:56:17.556Z,98907.77
2023-01-25T23:58:45.051Z,98904.02
